sensor_id;sensor_type;location;lat;lon;timestamp;P1;durP1;ratioP1;P2;durP2;ratioP2
3841;SDS011;1936;47.074;15.336;2023-03-08T04:41:05;21.05;;;13.43;;
3841;SDS011;1936;47.074;15.336;2023-03-08T04:43:12;19.52;;;13.43;;
3841;SDS011;1936;47.074;15.336;2023-03-08T04:45:16;19.33;;;13.73;;
3841;SDS011;1936;47.074;15.336;2023-03-08T04:47:19;23.17;;;14.27;;
3841;SDS011;1936;47.074;15.336;2023-03-08T04:49:23;25.23;;;16.50;;
3841;SDS011;1936;47.074;15.336;2023-03-08T04:51:27;25.25;;;15.32;;
3841;SDS011;1936;47.074;15.336;2023-03-08T04:53:31;20.10;;;14.50;;
3841;SDS011;1936;47.074;15.336;2023-03-08T04:55:35;24.50;;;16.35;;
3841;SDS011;1936;47.074;15.336;2023-03-08T04:57:40;26.40;;;16.30;;
3841;SDS011;1936;47.074;15.336;2023-03-08T04:59:44;21.23;;;15.00;;
3841;SDS011;1936;47.074;15.336;2023-03-08T05:01:48;25.08;;;16.20;;
3841;SDS011;1936;47.074;15.336;2023-03-08T05:03:51;24.83;;;15.32;;
3841;SDS011;1936;47.074;15.336;2023-03-08T05:05:55;20.90;;;15.40;;
3841;SDS011;1936;47.074;15.336;2023-03-08T05:07:58;16.90;;;12.25;;
3841;SDS011;1936;47.074;15.336;2023-03-08T05:10:04;22.67;;;13.68;;
3841;SDS011;1936;47.074;15.336;2023-03-08T05:12:08;18.08;;;13.20;;
3841;SDS011;1936;47.074;15.336;2023-03-08T05:14:13;21.35;;;15.25;;
3841;SDS011;1936;47.074;15.336;2023-03-08T05:16:17;22.55;;;14.35;;
3841;SDS011;1936;47.074;15.336;2023-03-08T05:18:20;24.65;;;14.65;;
3841;SDS011;1936;47.074;15.336;2023-03-08T05:20:23;21.52;;;13.43;;
3841;SDS011;1936;47.074;15.336;2023-03-08T05:22:27;22.45;;;14.70;;
3841;SDS011;1936;47.074;15.336;2023-03-08T05:24:30;18.73;;;13.73;;
3841;SDS011;1936;47.074;15.336;2023-03-08T05:26:34;25.05;;;14.88;;
3841;SDS011;1936;47.074;15.336;2023-03-08T05:28:37;21.60;;;14.32;;
3841;SDS011;1936;47.074;15.336;2023-03-08T05:30:43;23.25;;;14.70;;
3841;SDS011;1936;47.074;15.336;2023-03-08T05:32:47;23.95;;;13.38;;
3841;SDS011;1936;47.074;15.336;2023-03-08T05:34:50;19.42;;;13.52;;
3841;SDS011;1936;47.074;15.336;2023-03-08T05:36:54;21.48;;;15.18;;
3841;SDS011;1936;47.074;15.336;2023-03-08T05:38:57;21.23;;;14.52;;
3841;SDS011;1936;47.074;15.336;2023-03-08T05:41:01;25.05;;;14.73;;
3841;SDS011;1936;47.074;15.336;2023-03-08T05:43:06;25.13;;;15.75;;
3841;SDS011;1936;47.074;15.336;2023-03-08T05:45:10;17.20;;;12.55;;
3841;SDS011;1936;47.074;15.336;2023-03-08T05:47:15;17.80;;;12.52;;
3841;SDS011;1936;47.074;15.336;2023-03-08T05:49:18;21.08;;;13.45;;
3841;SDS011;1936;47.074;15.336;2023-03-08T05:51:21;23.25;;;13.20;;
3841;SDS011;1936;47.074;15.336;2023-03-08T05:53:25;15.32;;;11.18;;
3841;SDS011;1936;47.074;15.336;2023-03-08T05:55:28;22.50;;;13.80;;
3841;SDS011;1936;47.074;15.336;2023-03-08T05:57:32;18.63;;;13.05;;
3841;SDS011;1936;47.074;15.336;2023-03-08T05:59:36;18.58;;;12.50;;
3841;SDS011;1936;47.074;15.336;2023-03-08T06:01:40;18.20;;;14.15;;
3841;SDS011;1936;47.074;15.336;2023-03-08T06:03:46;17.38;;;13.48;;
3841;SDS011;1936;47.074;15.336;2023-03-08T06:05:50;15.82;;;11.23;;
3841;SDS011;1936;47.074;15.336;2023-03-08T06:07:54;20.95;;;13.98;;
3841;SDS011;1936;47.074;15.336;2023-03-08T06:09:58;23.90;;;13.35;;
3841;SDS011;1936;47.074;15.336;2023-03-08T06:12:01;21.50;;;12.52;;
3841;SDS011;1936;47.074;15.336;2023-03-08T06:14:05;21.55;;;13.20;;
3841;SDS011;1936;47.074;15.336;2023-03-08T06:16:09;21.00;;;13.65;;
3841;SDS011;1936;47.074;15.336;2023-03-08T06:18:13;19.67;;;14.82;;
3841;SDS011;1936;47.074;15.336;2023-03-08T06:20:18;18.95;;;13.77;;
3841;SDS011;1936;47.074;15.336;2023-03-08T06:22:22;19.10;;;12.80;;
3841;SDS011;1936;47.074;15.336;2023-03-08T06:24:25;22.10;;;13.45;;
3841;SDS011;1936;47.074;15.336;2023-03-08T06:26:28;15.85;;;11.98;;
3841;SDS011;1936;47.074;15.336;2023-03-08T06:28:32;22.60;;;14.65;;
3841;SDS011;1936;47.074;15.336;2023-03-08T06:30:36;18.75;;;13.05;;
3841;SDS011;1936;47.074;15.336;2023-03-08T06:32:40;19.05;;;13.68;;
3841;SDS011;1936;47.074;15.336;2023-03-08T06:34:43;24.00;;;13.10;;
3841;SDS011;1936;47.074;15.336;2023-03-08T06:36:49;19.30;;;12.02;;
3841;SDS011;1936;47.074;15.336;2023-03-08T06:38:54;17.92;;;13.65;;
3841;SDS011;1936;47.074;15.336;2023-03-08T06:41:00;19.88;;;12.38;;
3841;SDS011;1936;47.074;15.336;2023-03-08T06:43:04;16.52;;;12.40;;
3841;SDS011;1936;47.074;15.336;2023-03-08T06:45:08;22.08;;;12.95;;
3841;SDS011;1936;47.074;15.336;2023-03-08T06:47:14;14.50;;;11.65;;
3841;SDS011;1936;47.074;15.336;2023-03-08T06:49:18;17.83;;;12.48;;
3841;SDS011;1936;47.074;15.336;2023-03-08T06:51:22;18.70;;;12.63;;
3841;SDS011;1936;47.074;15.336;2023-03-08T06:53:28;20.65;;;13.00;;
3841;SDS011;1936;47.074;15.336;2023-03-08T06:55:33;15.00;;;12.30;;
3841;SDS011;1936;47.074;15.336;2023-03-08T06:57:37;21.75;;;13.13;;
3841;SDS011;1936;47.074;15.336;2023-03-08T06:59:41;17.17;;;12.02;;
3841;SDS011;1936;47.074;15.336;2023-03-08T07:01:45;14.30;;;10.85;;
3841;SDS011;1936;47.074;15.336;2023-03-08T07:03:49;12.25;;;10.85;;
3841;SDS011;1936;47.074;15.336;2023-03-08T07:05:57;18.45;;;13.13;;
3841;SDS011;1936;47.074;15.336;2023-03-08T07:08:01;14.30;;;11.18;;
3841;SDS011;1936;47.074;15.336;2023-03-08T07:10:07;16.05;;;12.25;;
3841;SDS011;1936;47.074;15.336;2023-03-08T07:12:13;14.70;;;12.13;;
3841;SDS011;1936;47.074;15.336;2023-03-08T07:14:17;15.82;;;11.40;;
3841;SDS011;1936;47.074;15.336;2023-03-08T07:16:20;15.52;;;12.38;;
3841;SDS011;1936;47.074;15.336;2023-03-08T07:18:24;16.13;;;13.95;;
3841;SDS011;1936;47.074;15.336;2023-03-08T07:20:28;15.15;;;11.57;;
3841;SDS011;1936;47.074;15.336;2023-03-08T07:22:32;19.30;;;12.00;;
3841;SDS011;1936;47.074;15.336;2023-03-08T07:24:36;17.05;;;12.23;;
3841;SDS011;1936;47.074;15.336;2023-03-08T07:26:41;14.00;;;11.23;;
3841;SDS011;1936;47.074;15.336;2023-03-08T07:28:47;13.88;;;10.82;;
3841;SDS011;1936;47.074;15.336;2023-03-08T07:30:52;18.67;;;12.33;;
3841;SDS011;1936;47.074;15.336;2023-03-08T07:32:55;16.80;;;12.90;;
3841;SDS011;1936;47.074;15.336;2023-03-08T07:34:59;15.63;;;11.47;;
3841;SDS011;1936;47.074;15.336;2023-03-08T07:37:09;12.67;;;10.90;;
3841;SDS011;1936;47.074;15.336;2023-03-08T07:39:14;16.83;;;12.20;;
3841;SDS011;1936;47.074;15.336;2023-03-08T07:41:19;15.10;;;11.70;;
3841;SDS011;1936;47.074;15.336;2023-03-08T07:43:25;15.90;;;11.63;;
3841;SDS011;1936;47.074;15.336;2023-03-08T07:45:29;13.80;;;10.73;;
3841;SDS011;1936;47.074;15.336;2023-03-08T07:47:33;14.50;;;12.20;;
3841;SDS011;1936;47.074;15.336;2023-03-08T07:49:37;14.53;;;10.77;;
3841;SDS011;1936;47.074;15.336;2023-03-08T07:51:41;14.30;;;11.37;;
3841;SDS011;1936;47.074;15.336;2023-03-08T07:53:45;13.60;;;10.80;;
3841;SDS011;1936;47.074;15.336;2023-03-08T07:55:49;13.73;;;11.10;;
3841;SDS011;1936;47.074;15.336;2023-03-08T07:57:53;13.10;;;10.90;;
3841;SDS011;1936;47.074;15.336;2023-03-08T07:59:59;18.00;;;14.13;;
3841;SDS011;1936;47.074;15.336;2023-03-08T08:02:08;18.43;;;12.40;;
3841;SDS011;1936;47.074;15.336;2023-03-08T08:04:15;14.40;;;12.03;;
3841;SDS011;1936;47.074;15.336;2023-03-08T08:06:19;15.90;;;12.77;;
3841;SDS011;1936;47.074;15.336;2023-03-08T08:08:26;17.70;;;13.20;;
3841;SDS011;1936;47.074;15.336;2023-03-08T08:10:32;14.10;;;12.10;;
3841;SDS011;1936;47.074;15.336;2023-03-08T08:12:36;14.70;;;12.20;;
3841;SDS011;1936;47.074;15.336;2023-03-08T08:14:48;15.60;;;12.13;;
3841;SDS011;1936;47.074;15.336;2023-03-08T08:17:05;19.93;;;13.47;;
3841;SDS011;1936;47.074;15.336;2023-03-08T08:19:10;16.70;;;11.93;;
3841;SDS011;1936;47.074;15.336;2023-03-08T08:21:18;16.23;;;10.93;;
3841;SDS011;1936;47.074;15.336;2023-03-08T08:23:22;14.23;;;12.67;;
3841;SDS011;1936;47.074;15.336;2023-03-08T08:25:25;16.27;;;12.37;;
3841;SDS011;1936;47.074;15.336;2023-03-08T08:27:29;14.90;;;12.23;;
3841;SDS011;1936;47.074;15.336;2023-03-08T08:29:33;13.20;;;11.03;;
3841;SDS011;1936;47.074;15.336;2023-03-08T08:31:36;16.07;;;11.20;;
3841;SDS011;1936;47.074;15.336;2023-03-08T08:33:42;12.70;;;10.33;;
3841;SDS011;1936;47.074;15.336;2023-03-08T08:35:45;13.43;;;10.57;;
3841;SDS011;1936;47.074;15.336;2023-03-08T08:37:49;13.17;;;10.60;;
3841;SDS011;1936;47.074;15.336;2023-03-08T08:39:53;13.70;;;11.20;;
3841;SDS011;1936;47.074;15.336;2023-03-08T08:41:56;11.83;;;9.90;;
3841;SDS011;1936;47.074;15.336;2023-03-08T08:44:00;17.13;;;11.67;;
3841;SDS011;1936;47.074;15.336;2023-03-08T08:46:04;14.00;;;10.80;;
3841;SDS011;1936;47.074;15.336;2023-03-08T08:48:08;16.47;;;11.37;;
3841;SDS011;1936;47.074;15.336;2023-03-08T08:50:12;13.50;;;10.87;;
3841;SDS011;1936;47.074;15.336;2023-03-08T08:52:16;17.47;;;12.50;;
3841;SDS011;1936;47.074;15.336;2023-03-08T08:54:21;14.33;;;11.87;;
3841;SDS011;1936;47.074;15.336;2023-03-08T08:56:26;14.20;;;11.30;;
3841;SDS011;1936;47.074;15.336;2023-03-08T08:58:30;13.73;;;10.33;;
3841;SDS011;1936;47.074;15.336;2023-03-08T09:00:34;14.80;;;11.27;;
3841;SDS011;1936;47.074;15.336;2023-03-08T09:02:38;14.37;;;11.70;;
3841;SDS011;1936;47.074;15.336;2023-03-08T09:04:41;12.60;;;11.00;;
3841;SDS011;1936;47.074;15.336;2023-03-08T09:06:47;14.43;;;11.77;;
3841;SDS011;1936;47.074;15.336;2023-03-08T09:08:51;12.60;;;9.80;;
3841;SDS011;1936;47.074;15.336;2023-03-08T09:11:00;13.00;;;10.97;;
3841;SDS011;1936;47.074;15.336;2023-03-08T09:13:04;13.33;;;11.93;;
3841;SDS011;1936;47.074;15.336;2023-03-08T09:15:09;14.00;;;11.73;;
3841;SDS011;1936;47.074;15.336;2023-03-08T09:17:13;12.10;;;10.20;;
3841;SDS011;1936;47.074;15.336;2023-03-08T09:19:16;16.20;;;11.83;;
3841;SDS011;1936;47.074;15.336;2023-03-08T09:21:20;14.07;;;11.00;;
3841;SDS011;1936;47.074;15.336;2023-03-08T09:23:26;12.50;;;9.77;;
3841;SDS011;1936;47.074;15.336;2023-03-08T09:25:30;13.07;;;10.87;;
3841;SDS011;1936;47.074;15.336;2023-03-08T09:27:34;11.90;;;10.03;;
3841;SDS011;1936;47.074;15.336;2023-03-08T09:29:38;11.17;;;9.97;;
3841;SDS011;1936;47.074;15.336;2023-03-08T09:31:42;17.93;;;11.00;;
3841;SDS011;1936;47.074;15.336;2023-03-08T09:33:46;13.50;;;11.30;;
3841;SDS011;1936;47.074;15.336;2023-03-08T09:35:55;15.50;;;11.20;;
3841;SDS011;1936;47.074;15.336;2023-03-08T09:37:59;14.23;;;10.63;;
3841;SDS011;1936;47.074;15.336;2023-03-08T09:40:04;15.50;;;10.40;;
3841;SDS011;1936;47.074;15.336;2023-03-08T09:42:14;13.60;;;11.43;;
3841;SDS011;1936;47.074;15.336;2023-03-08T09:44:30;14.40;;;10.97;;
3841;SDS011;1936;47.074;15.336;2023-03-08T09:46:52;14.30;;;10.07;;
3841;SDS011;1936;47.074;15.336;2023-03-08T09:48:58;11.80;;;9.40;;
3841;SDS011;1936;47.074;15.336;2023-03-08T09:51:07;15.87;;;11.90;;
3841;SDS011;1936;47.074;15.336;2023-03-08T09:53:17;12.97;;;11.17;;
3841;SDS011;1936;47.074;15.336;2023-03-08T09:55:28;12.97;;;10.70;;
3841;SDS011;1936;47.074;15.336;2023-03-08T09:57:34;15.00;;;10.60;;
3841;SDS011;1936;47.074;15.336;2023-03-08T09:59:43;17.20;;;12.93;;
3841;SDS011;1936;47.074;15.336;2023-03-08T10:01:54;12.03;;;10.73;;
3841;SDS011;1936;47.074;15.336;2023-03-08T10:04:06;13.63;;;11.87;;
3841;SDS011;1936;47.074;15.336;2023-03-08T10:06:30;13.80;;;11.37;;
3841;SDS011;1936;47.074;15.336;2023-03-08T10:08:39;13.50;;;10.03;;
3841;SDS011;1936;47.074;15.336;2023-03-08T10:10:52;16.80;;;11.90;;
3841;SDS011;1936;47.074;15.336;2023-03-08T10:13:03;15.10;;;11.93;;
3841;SDS011;1936;47.074;15.336;2023-03-08T10:15:28;17.10;;;11.53;;
3841;SDS011;1936;47.074;15.336;2023-03-08T10:17:37;15.17;;;10.60;;
3841;SDS011;1936;47.074;15.336;2023-03-08T10:19:47;14.67;;;12.37;;
3841;SDS011;1936;47.074;15.336;2023-03-08T10:21:56;12.90;;;11.30;;
3841;SDS011;1936;47.074;15.336;2023-03-08T10:24:05;13.60;;;10.60;;
3841;SDS011;1936;47.074;15.336;2023-03-08T10:26:18;13.37;;;11.53;;
3841;SDS011;1936;47.074;15.336;2023-03-08T10:28:22;17.90;;;11.90;;
3841;SDS011;1936;47.074;15.336;2023-03-08T10:30:30;14.57;;;10.60;;
3841;SDS011;1936;47.074;15.336;2023-03-08T10:32:35;16.33;;;11.40;;
3841;SDS011;1936;47.074;15.336;2023-03-08T10:34:44;13.90;;;12.10;;
3841;SDS011;1936;47.074;15.336;2023-03-08T10:36:49;17.13;;;12.70;;
3841;SDS011;1936;47.074;15.336;2023-03-08T10:38:59;16.20;;;10.47;;
3841;SDS011;1936;47.074;15.336;2023-03-08T10:41:11;12.50;;;10.30;;
3841;SDS011;1936;47.074;15.336;2023-03-08T10:43:22;14.90;;;12.47;;
3841;SDS011;1936;47.074;15.336;2023-03-08T10:45:29;18.23;;;12.07;;
3841;SDS011;1936;47.074;15.336;2023-03-08T10:47:33;17.80;;;12.87;;
3841;SDS011;1936;47.074;15.336;2023-03-08T10:49:37;15.10;;;10.90;;
3841;SDS011;1936;47.074;15.336;2023-03-08T10:51:50;18.10;;;13.37;;
3841;SDS011;1936;47.074;15.336;2023-03-08T10:53:56;15.53;;;12.50;;
3841;SDS011;1936;47.074;15.336;2023-03-08T10:58:27;18.50;;;11.20;;
3841;SDS011;1936;47.074;15.336;2023-03-08T11:00:36;23.10;;;13.47;;
3841;SDS011;1936;47.074;15.336;2023-03-08T11:02:40;16.73;;;12.27;;
3841;SDS011;1936;47.074;15.336;2023-03-08T11:04:49;14.20;;;11.70;;
3841;SDS011;1936;47.074;15.336;2023-03-08T11:06:53;13.73;;;11.40;;
3841;SDS011;1936;47.074;15.336;2023-03-08T11:08:57;16.27;;;12.17;;
3841;SDS011;1936;47.074;15.336;2023-03-08T11:11:05;17.23;;;11.97;;
3841;SDS011;1936;47.074;15.336;2023-03-08T11:13:16;15.77;;;11.63;;
3841;SDS011;1936;47.074;15.336;2023-03-08T11:15:26;14.47;;;10.87;;
3841;SDS011;1936;47.074;15.336;2023-03-08T11:17:33;17.20;;;12.33;;
3841;SDS011;1936;47.074;15.336;2023-03-08T11:19:43;17.63;;;11.20;;
3841;SDS011;1936;47.074;15.336;2023-03-08T11:22:13;16.33;;;12.13;;
3841;SDS011;1936;47.074;15.336;2023-03-08T11:24:28;24.37;;;11.90;;
3841;SDS011;1936;47.074;15.336;2023-03-08T11:26:44;14.80;;;10.87;;
3841;SDS011;1936;47.074;15.336;2023-03-08T11:29:01;16.73;;;13.50;;
3841;SDS011;1936;47.074;15.336;2023-03-08T11:31:16;16.37;;;11.90;;
3841;SDS011;1936;47.074;15.336;2023-03-08T11:33:38;16.10;;;13.40;;
3841;SDS011;1936;47.074;15.336;2023-03-08T11:36:01;15.87;;;12.53;;
3841;SDS011;1936;47.074;15.336;2023-03-08T11:38:09;17.60;;;13.10;;
3841;SDS011;1936;47.074;15.336;2023-03-08T11:40:21;14.97;;;11.77;;
3841;SDS011;1936;47.074;15.336;2023-03-08T11:42:28;19.63;;;12.57;;
3841;SDS011;1936;47.074;15.336;2023-03-08T11:44:49;16.43;;;13.20;;
3841;SDS011;1936;47.074;15.336;2023-03-08T11:47:22;13.07;;;11.67;;
3841;SDS011;1936;47.074;15.336;2023-03-08T11:49:55;13.87;;;12.40;;
3841;SDS011;1936;47.074;15.336;2023-03-08T11:52:11;15.90;;;12.67;;
3841;SDS011;1936;47.074;15.336;2023-03-08T11:54:25;16.33;;;12.70;;
3841;SDS011;1936;47.074;15.336;2023-03-08T11:56:44;16.00;;;13.03;;
3841;SDS011;1936;47.074;15.336;2023-03-08T11:58:49;15.83;;;12.70;;
3841;SDS011;1936;47.074;15.336;2023-03-08T12:00:58;13.83;;;11.77;;
3841;SDS011;1936;47.074;15.336;2023-03-08T12:03:07;12.30;;;11.10;;
3841;SDS011;1936;47.074;15.336;2023-03-08T12:05:19;13.27;;;11.90;;
3841;SDS011;1936;47.074;15.336;2023-03-08T12:07:30;16.67;;;13.00;;
3841;SDS011;1936;47.074;15.336;2023-03-08T12:09:39;14.60;;;12.90;;
3841;SDS011;1936;47.074;15.336;2023-03-08T12:11:48;14.97;;;12.87;;
3841;SDS011;1936;47.074;15.336;2023-03-08T12:13:57;18.10;;;11.47;;
3841;SDS011;1936;47.074;15.336;2023-03-08T12:16:07;13.73;;;12.33;;
3841;SDS011;1936;47.074;15.336;2023-03-08T12:18:19;13.33;;;11.93;;
3841;SDS011;1936;47.074;15.336;2023-03-08T12:20:30;19.00;;;12.87;;
3841;SDS011;1936;47.074;15.336;2023-03-08T12:22:41;15.80;;;12.33;;
3841;SDS011;1936;47.074;15.336;2023-03-08T12:24:49;14.43;;;12.93;;
3841;SDS011;1936;47.074;15.336;2023-03-08T12:26:58;13.87;;;11.63;;
3841;SDS011;1936;47.074;15.336;2023-03-08T12:29:08;17.73;;;13.33;;
3841;SDS011;1936;47.074;15.336;2023-03-08T12:31:21;16.07;;;14.50;;
3841;SDS011;1936;47.074;15.336;2023-03-08T12:33:30;14.80;;;12.10;;
3841;SDS011;1936;47.074;15.336;2023-03-08T12:35:35;13.90;;;12.50;;
3841;SDS011;1936;47.074;15.336;2023-03-08T12:37:39;16.20;;;13.07;;
3841;SDS011;1936;47.074;15.336;2023-03-08T12:39:53;14.70;;;13.20;;
3841;SDS011;1936;47.074;15.336;2023-03-08T12:41:59;14.23;;;12.70;;
3841;SDS011;1936;47.074;15.336;2023-03-08T12:44:05;19.57;;;12.53;;
3841;SDS011;1936;47.074;15.336;2023-03-08T12:46:23;14.10;;;12.67;;
3841;SDS011;1936;47.074;15.336;2023-03-08T12:48:27;13.80;;;12.50;;
3841;SDS011;1936;47.074;15.336;2023-03-08T12:50:37;14.20;;;12.70;;
3841;SDS011;1936;47.074;15.336;2023-03-08T12:52:43;16.83;;;13.60;;
3841;SDS011;1936;47.074;15.336;2023-03-08T12:54:54;14.80;;;13.17;;
3841;SDS011;1936;47.074;15.336;2023-03-08T12:56:59;14.90;;;12.33;;
3841;SDS011;1936;47.074;15.336;2023-03-08T13:01:30;15.80;;;11.53;;
3841;SDS011;1936;47.074;15.336;2023-03-08T13:03:38;15.40;;;12.10;;
3841;SDS011;1936;47.074;15.336;2023-03-08T13:05:43;12.20;;;10.90;;
3841;SDS011;1936;47.074;15.336;2023-03-08T13:07:53;15.23;;;11.57;;
3841;SDS011;1936;47.074;15.336;2023-03-08T13:12:24;14.63;;;11.60;;
3841;SDS011;1936;47.074;15.336;2023-03-08T13:14:39;16.73;;;11.10;;
3841;SDS011;1936;47.074;15.336;2023-03-08T13:16:44;17.70;;;11.63;;
3841;SDS011;1936;47.074;15.336;2023-03-08T13:18:49;11.40;;;9.80;;
3841;SDS011;1936;47.074;15.336;2023-03-08T13:21:05;12.70;;;10.47;;
3841;SDS011;1936;47.074;15.336;2023-03-08T13:23:21;15.43;;;11.13;;
3841;SDS011;1936;47.074;15.336;2023-03-08T13:25:35;15.27;;;12.20;;
3841;SDS011;1936;47.074;15.336;2023-03-08T13:27:52;15.87;;;10.83;;
3841;SDS011;1936;47.074;15.336;2023-03-08T13:30:06;15.20;;;11.10;;
3841;SDS011;1936;47.074;15.336;2023-03-08T13:32:20;11.47;;;10.27;;
3841;SDS011;1936;47.074;15.336;2023-03-08T13:34:28;14.13;;;10.57;;
3841;SDS011;1936;47.074;15.336;2023-03-08T13:36:34;13.07;;;10.40;;
3841;SDS011;1936;47.074;15.336;2023-03-08T13:38:39;12.93;;;11.20;;
3841;SDS011;1936;47.074;15.336;2023-03-08T13:40:48;12.43;;;10.00;;
3841;SDS011;1936;47.074;15.336;2023-03-08T13:42:53;12.90;;;10.53;;
3841;SDS011;1936;47.074;15.336;2023-03-08T13:45:07;12.40;;;11.20;;
3841;SDS011;1936;47.074;15.336;2023-03-08T13:47:14;13.07;;;10.93;;
3841;SDS011;1936;47.074;15.336;2023-03-08T13:49:23;13.17;;;11.50;;
3841;SDS011;1936;47.074;15.336;2023-03-08T13:51:30;13.70;;;10.70;;
3841;SDS011;1936;47.074;15.336;2023-03-08T13:53:34;11.43;;;9.97;;
3841;SDS011;1936;47.074;15.336;2023-03-08T13:55:41;12.50;;;9.53;;
3841;SDS011;1936;47.074;15.336;2023-03-08T13:57:48;10.67;;;8.60;;
3841;SDS011;1936;47.074;15.336;2023-03-08T13:59:54;8.77;;;7.80;;
3841;SDS011;1936;47.074;15.336;2023-03-08T14:01:59;11.80;;;9.30;;
3841;SDS011;1936;47.074;15.336;2023-03-08T14:04:09;11.50;;;9.97;;
3841;SDS011;1936;47.074;15.336;2023-03-08T14:06:15;14.13;;;9.27;;
3841;SDS011;1936;47.074;15.336;2023-03-08T14:08:22;10.33;;;9.30;;
3841;SDS011;1936;47.074;15.336;2023-03-08T14:10:31;9.23;;;7.77;;
3841;SDS011;1936;47.074;15.336;2023-03-08T14:12:38;9.33;;;8.37;;
3841;SDS011;1936;47.074;15.336;2023-03-08T14:14:42;10.50;;;9.40;;
3841;SDS011;1936;47.074;15.336;2023-03-08T14:16:50;10.67;;;9.53;;
3841;SDS011;1936;47.074;15.336;2023-03-08T14:18:55;8.70;;;7.80;;
3841;SDS011;1936;47.074;15.336;2023-03-08T14:21:04;7.87;;;7.03;;
3841;SDS011;1936;47.074;15.336;2023-03-08T14:23:13;8.73;;;6.50;;
3841;SDS011;1936;47.074;15.336;2023-03-08T14:25:27;6.80;;;6.20;;
3841;SDS011;1936;47.074;15.336;2023-03-08T14:27:35;9.50;;;6.53;;
3841;SDS011;1936;47.074;15.336;2023-03-08T14:29:41;7.20;;;5.90;;
3841;SDS011;1936;47.074;15.336;2023-03-08T14:31:56;9.40;;;7.90;;
3841;SDS011;1936;47.074;15.336;2023-03-08T14:34:16;9.23;;;7.20;;
3841;SDS011;1936;47.074;15.336;2023-03-08T14:36:21;8.40;;;5.77;;
3841;SDS011;1936;47.074;15.336;2023-03-08T14:38:25;11.13;;;6.13;;
3841;SDS011;1936;47.074;15.336;2023-03-08T14:40:33;8.40;;;6.67;;
3841;SDS011;1936;47.074;15.336;2023-03-08T14:42:39;8.10;;;5.97;;
3841;SDS011;1936;47.074;15.336;2023-03-08T14:44:48;7.63;;;6.57;;
3841;SDS011;1936;47.074;15.336;2023-03-08T14:46:54;6.60;;;5.93;;
3841;SDS011;1936;47.074;15.336;2023-03-08T14:49:00;6.30;;;5.57;;
3841;SDS011;1936;47.074;15.336;2023-03-08T14:51:22;7.50;;;5.40;;
3841;SDS011;1936;47.074;15.336;2023-03-08T14:53:30;8.50;;;5.97;;
3841;SDS011;1936;47.074;15.336;2023-03-08T14:55:36;8.13;;;5.27;;
3841;SDS011;1936;47.074;15.336;2023-03-08T14:57:42;9.10;;;4.97;;
3841;SDS011;1936;47.074;15.336;2023-03-08T14:59:46;5.13;;;4.63;;
3841;SDS011;1936;47.074;15.336;2023-03-08T15:01:51;8.70;;;6.20;;
3841;SDS011;1936;47.074;15.336;2023-03-08T15:03:55;5.53;;;4.27;;
3841;SDS011;1936;47.074;15.336;2023-03-08T15:06:00;8.20;;;4.30;;
3841;SDS011;1936;47.074;15.336;2023-03-08T15:08:09;6.97;;;4.93;;
3841;SDS011;1936;47.074;15.336;2023-03-08T15:10:17;6.30;;;5.00;;
3841;SDS011;1936;47.074;15.336;2023-03-08T15:12:28;6.17;;;4.10;;
3841;SDS011;1936;47.074;15.336;2023-03-08T15:14:31;9.70;;;5.17;;
3841;SDS011;1936;47.074;15.336;2023-03-08T15:16:35;6.73;;;4.47;;
3841;SDS011;1936;47.074;15.336;2023-03-08T15:18:39;6.20;;;3.90;;
3841;SDS011;1936;47.074;15.336;2023-03-08T15:20:42;5.40;;;3.90;;
3841;SDS011;1936;47.074;15.336;2023-03-08T15:22:51;18.43;;;6.90;;
3841;SDS011;1936;47.074;15.336;2023-03-08T15:24:58;10.50;;;3.87;;
3841;SDS011;1936;47.074;15.336;2023-03-08T15:27:01;6.90;;;4.37;;
3841;SDS011;1936;47.074;15.336;2023-03-08T15:29:08;4.97;;;3.60;;
3841;SDS011;1936;47.074;15.336;2023-03-08T15:31:21;6.37;;;3.77;;
3841;SDS011;1936;47.074;15.336;2023-03-08T15:33:24;6.67;;;3.70;;
3841;SDS011;1936;47.074;15.336;2023-03-08T15:35:28;5.70;;;4.30;;
3841;SDS011;1936;47.074;15.336;2023-03-08T15:37:32;5.53;;;3.37;;
3841;SDS011;1936;47.074;15.336;2023-03-08T15:39:35;5.60;;;4.30;;
3841;SDS011;1936;47.074;15.336;2023-03-08T15:41:39;7.27;;;3.30;;
3841;SDS011;1936;47.074;15.336;2023-03-08T15:43:42;4.07;;;3.23;;
3841;SDS011;1936;47.074;15.336;2023-03-08T15:45:48;3.27;;;2.97;;
3841;SDS011;1936;47.074;15.336;2023-03-08T15:47:55;6.13;;;3.77;;
3841;SDS011;1936;47.074;15.336;2023-03-08T15:50:00;6.70;;;3.67;;
3841;SDS011;1936;47.074;15.336;2023-03-08T15:52:03;4.17;;;3.30;;
3841;SDS011;1936;47.074;15.336;2023-03-08T15:54:09;7.53;;;3.60;;
3841;SDS011;1936;47.074;15.336;2023-03-08T15:56:13;3.83;;;3.40;;
3841;SDS011;1936;47.074;15.336;2023-03-08T15:58:17;7.07;;;3.27;;
3841;SDS011;1936;47.074;15.336;2023-03-08T16:00:21;7.00;;;3.47;;
3841;SDS011;1936;47.074;15.336;2023-03-08T16:02:27;5.97;;;4.03;;
3841;SDS011;1936;47.074;15.336;2023-03-08T16:04:31;4.97;;;3.37;;
3841;SDS011;1936;47.074;15.336;2023-03-08T16:06:34;9.20;;;4.37;;
3841;SDS011;1936;47.074;15.336;2023-03-08T16:08:38;7.43;;;3.40;;
3841;SDS011;1936;47.074;15.336;2023-03-08T16:10:42;7.90;;;3.93;;
3841;SDS011;1936;47.074;15.336;2023-03-08T16:12:46;5.60;;;3.00;;
3841;SDS011;1936;47.074;15.336;2023-03-08T16:14:50;4.20;;;3.23;;
3841;SDS011;1936;47.074;15.336;2023-03-08T16:16:55;4.83;;;3.13;;
3841;SDS011;1936;47.074;15.336;2023-03-08T16:19:00;3.80;;;3.20;;
3841;SDS011;1936;47.074;15.336;2023-03-08T16:21:04;11.50;;;3.83;;
3841;SDS011;1936;47.074;15.336;2023-03-08T16:23:11;7.73;;;3.50;;
3841;SDS011;1936;47.074;15.336;2023-03-08T16:25:15;4.87;;;3.70;;
3841;SDS011;1936;47.074;15.336;2023-03-08T16:27:19;14.03;;;3.83;;
3841;SDS011;1936;47.074;15.336;2023-03-08T16:29:22;7.93;;;3.23;;
3841;SDS011;1936;47.074;15.336;2023-03-08T16:31:26;5.20;;;3.10;;
3841;SDS011;1936;47.074;15.336;2023-03-08T16:33:33;5.00;;;3.67;;
3841;SDS011;1936;47.074;15.336;2023-03-08T16:35:39;5.70;;;3.83;;
3841;SDS011;1936;47.074;15.336;2023-03-08T16:37:51;5.30;;;3.53;;
3841;SDS011;1936;47.074;15.336;2023-03-08T16:39:55;6.17;;;3.40;;
3841;SDS011;1936;47.074;15.336;2023-03-08T16:42:02;3.20;;;2.90;;
3841;SDS011;1936;47.074;15.336;2023-03-08T16:44:06;6.10;;;3.43;;
3841;SDS011;1936;47.074;15.336;2023-03-08T16:46:20;4.80;;;3.00;;
3841;SDS011;1936;47.074;15.336;2023-03-08T16:48:25;3.53;;;2.83;;
3841;SDS011;1936;47.074;15.336;2023-03-08T16:50:29;5.93;;;3.47;;
3841;SDS011;1936;47.074;15.336;2023-03-08T16:52:34;7.53;;;3.17;;
3841;SDS011;1936;47.074;15.336;2023-03-08T16:54:37;6.60;;;3.40;;
3841;SDS011;1936;47.074;15.336;2023-03-08T16:56:41;3.63;;;3.30;;
3841;SDS011;1936;47.074;15.336;2023-03-08T16:58:45;7.67;;;4.50;;
3841;SDS011;1936;47.074;15.336;2023-03-08T17:00:49;5.87;;;3.20;;
3841;SDS011;1936;47.074;15.336;2023-03-08T17:02:53;7.33;;;3.50;;
3841;SDS011;1936;47.074;15.336;2023-03-08T17:04:56;3.73;;;2.87;;
3841;SDS011;1936;47.074;15.336;2023-03-08T17:07:00;5.63;;;4.23;;
3841;SDS011;1936;47.074;15.336;2023-03-08T17:09:08;11.60;;;4.30;;
3841;SDS011;1936;47.074;15.336;2023-03-08T17:11:13;4.10;;;3.63;;
3841;SDS011;1936;47.074;15.336;2023-03-08T17:13:17;5.40;;;3.20;;
3841;SDS011;1936;47.074;15.336;2023-03-08T17:15:21;6.40;;;3.30;;
3841;SDS011;1936;47.074;15.336;2023-03-08T17:17:25;7.33;;;4.80;;
3841;SDS011;1936;47.074;15.336;2023-03-08T17:19:28;13.23;;;3.83;;
3841;SDS011;1936;47.074;15.336;2023-03-08T17:21:32;12.33;;;3.43;;
3841;SDS011;1936;47.074;15.336;2023-03-08T17:23:38;8.55;;;4.00;;
3841;SDS011;1936;47.074;15.336;2023-03-08T17:25:43;5.55;;;3.75;;